createdAt,value
2023-01-11T00:00:30.518Z,16.80
2023-01-11T00:03:15.268Z,15.40
2023-01-11T00:05:42.749Z,20.30
2023-01-11T00:08:10.216Z,20.10
2023-01-11T00:10:37.703Z,20.10
2023-01-11T00:13:05.190Z,22.50
2023-01-11T00:15:32.784Z,19.50
2023-01-11T00:18:03.070Z,20.30
2023-01-11T00:20:30.593Z,22.20
2023-01-11T00:22:58.258Z,24.00
2023-01-11T00:25:25.883Z,22.40
2023-01-11T00:27:53.338Z,23.20
2023-01-11T00:30:20.804Z,22.10
2023-01-11T00:32:48.418Z,22.60
2023-01-11T00:35:15.927Z,18.30
2023-01-11T00:37:43.437Z,19.80
2023-01-11T00:40:10.984Z,21.40
2023-01-11T00:42:57.253Z,18.70
2023-01-11T00:45:43.803Z,20.10
2023-01-11T00:48:11.478Z,18.30
2023-01-11T00:50:39.029Z,21.10
2023-01-11T00:53:06.632Z,19.30
2023-01-11T00:55:34.209Z,18.60
2023-01-11T00:58:01.726Z,20.90
2023-01-11T01:00:29.524Z,20.40
2023-01-11T01:02:57.040Z,19.70
2023-01-11T01:05:24.673Z,17.80
2023-01-11T01:07:52.482Z,18.20
2023-01-11T01:10:19.974Z,18.20
2023-01-11T01:13:06.510Z,19.80
2023-01-11T01:15:34.165Z,17.60
2023-01-11T01:18:01.749Z,19.30
2023-01-11T01:20:29.474Z,22.30
2023-01-11T01:22:56.978Z,21.10
2023-01-11T01:25:24.544Z,17.30
2023-01-11T01:27:52.050Z,18.90
2023-01-11T01:30:19.591Z,21.40
2023-01-11T01:32:47.129Z,20.00
2023-01-11T01:35:14.634Z,20.20
2023-01-11T01:37:42.162Z,21.00
2023-01-11T01:40:09.630Z,21.00
2023-01-11T01:42:37.201Z,23.60
2023-01-11T01:45:05.356Z,20.60
2023-01-11T01:47:32.820Z,25.60
2023-01-11T01:50:00.578Z,24.40
2023-01-11T01:52:29.356Z,20.40
2023-01-11T01:54:56.899Z,21.10
2023-01-11T01:57:24.366Z,20.40
2023-01-11T01:59:51.983Z,19.40
2023-01-11T02:02:19.833Z,22.60
2023-01-11T02:04:47.443Z,22.10
2023-01-11T02:07:16.983Z,19.70
2023-01-11T02:09:44.940Z,22.20
2023-01-11T02:12:12.437Z,21.90
2023-01-11T02:14:40.053Z,20.90
2023-01-11T02:17:07.569Z,22.60
2023-01-11T02:19:35.250Z,20.30
2023-01-11T02:22:02.706Z,20.70
2023-01-11T02:24:30.233Z,21.20
2023-01-11T02:26:59.398Z,23.70
2023-01-11T02:29:26.873Z,27.40
2023-01-11T02:31:54.329Z,22.20
2023-01-11T02:34:21.878Z,23.50
2023-01-11T02:36:49.408Z,24.20
2023-01-11T02:39:16.853Z,22.60
2023-01-11T02:42:03.428Z,21.90
2023-01-11T02:44:49.879Z,20.50
2023-01-11T02:47:18.403Z,23.90
2023-01-11T02:49:45.891Z,18.10
2023-01-11T02:52:13.556Z,20.90
2023-01-11T02:54:41.089Z,21.70
2023-01-11T02:57:08.585Z,20.70
2023-01-11T02:59:36.322Z,21.80
2023-01-11T03:02:03.941Z,20.70
2023-01-11T03:04:31.569Z,18.20
2023-01-11T03:06:59.123Z,19.70
2023-01-11T03:09:26.786Z,20.80
2023-01-11T03:12:12.892Z,20.70
2023-01-11T03:14:40.389Z,16.00
2023-01-11T03:17:07.892Z,23.00
2023-01-11T03:19:35.496Z,20.50
2023-01-11T03:22:02.985Z,21.30
2023-01-11T03:24:30.511Z,16.30
2023-01-11T03:26:58.033Z,21.50
2023-01-11T03:29:25.590Z,21.60
2023-01-11T03:31:53.092Z,17.90
2023-01-11T03:34:20.550Z,17.90
2023-01-11T03:36:48.042Z,22.50
2023-01-11T03:39:15.499Z,21.70
2023-01-11T03:41:43.061Z,22.00
2023-01-11T03:44:10.802Z,20.10
2023-01-11T03:46:39.031Z,21.40
2023-01-11T03:49:06.657Z,17.90
2023-01-11T03:51:34.178Z,16.80
2023-01-11T03:54:01.826Z,20.20
2023-01-11T03:56:29.308Z,20.70
2023-01-11T03:58:56.842Z,18.90
2023-01-11T04:01:24.297Z,23.90
2023-01-11T04:03:51.765Z,21.90
2023-01-11T04:06:19.246Z,21.30
2023-01-11T04:08:46.783Z,23.80
2023-01-11T04:11:14.292Z,24.00
2023-01-11T04:13:41.894Z,25.50
2023-01-11T04:16:09.419Z,22.60
2023-01-11T04:18:37.053Z,25.10
2023-01-11T04:21:04.591Z,23.30
2023-01-11T04:23:32.108Z,20.50
2023-01-11T04:25:59.582Z,20.80
2023-01-11T04:28:27.119Z,21.10
2023-01-11T04:30:54.648Z,20.20
2023-01-11T04:33:22.108Z,20.50
2023-01-11T04:35:50.463Z,22.40
2023-01-11T04:38:18.873Z,24.50
2023-01-11T04:40:46.363Z,18.80
2023-01-11T04:43:13.866Z,21.90
2023-01-11T04:45:41.367Z,20.60
2023-01-11T04:48:08.846Z,21.80
2023-01-11T04:50:36.607Z,23.70
2023-01-11T04:53:04.195Z,23.20
2023-01-11T04:55:31.895Z,28.30
2023-01-11T04:57:59.750Z,28.10
2023-01-11T05:00:27.243Z,21.90
2023-01-11T05:02:54.740Z,21.10
2023-01-11T05:05:22.414Z,19.80
2023-01-11T05:07:49.930Z,24.80
2023-01-11T05:10:19.415Z,21.70
2023-01-11T05:12:48.378Z,26.00
2023-01-11T05:15:15.887Z,21.20
2023-01-11T05:17:43.366Z,24.10
2023-01-11T05:20:10.933Z,24.60
2023-01-11T05:22:38.571Z,22.60
2023-01-11T05:25:06.051Z,23.10
2023-01-11T05:27:33.614Z,24.00
2023-01-11T05:30:01.179Z,23.70
2023-01-11T05:32:28.685Z,23.10
2023-01-11T05:34:56.272Z,25.10
2023-01-11T05:37:23.762Z,24.10
2023-01-11T05:39:51.261Z,23.20
2023-01-11T05:42:18.941Z,23.00
2023-01-11T05:45:05.437Z,23.30
2023-01-11T05:47:32.993Z,24.00
2023-01-11T05:50:00.509Z,22.60
2023-01-11T05:52:27.977Z,23.10
2023-01-11T05:54:55.476Z,24.00
2023-01-11T05:57:23.050Z,21.80
2023-01-11T05:59:50.561Z,26.40
2023-01-11T06:02:18.402Z,23.10
2023-01-11T06:04:46.007Z,16.80
2023-01-11T06:07:13.464Z,19.90
2023-01-11T06:09:41.012Z,24.20
2023-01-11T06:12:08.530Z,22.50
2023-01-11T06:14:38.140Z,22.30
2023-01-11T06:17:05.893Z,23.20
2023-01-11T06:19:33.397Z,25.80
2023-01-11T06:22:00.921Z,24.60
2023-01-11T06:24:28.571Z,25.80
2023-01-11T06:26:56.143Z,27.10
2023-01-11T06:29:23.681Z,28.60
2023-01-11T06:31:51.192Z,29.30
2023-01-11T06:34:18.685Z,33.20
2023-01-11T06:36:46.132Z,25.80
2023-01-11T06:39:13.645Z,26.30
2023-01-11T06:41:41.110Z,23.60
2023-01-11T06:44:08.569Z,26.20
2023-01-11T06:46:36.164Z,29.80
2023-01-11T06:49:03.708Z,33.50
2023-01-11T06:51:31.205Z,43.20
2023-01-11T06:53:58.772Z,53.00
2023-01-11T06:56:26.263Z,42.30
2023-01-11T06:58:54.009Z,45.70
2023-01-11T07:01:21.852Z,39.40
2023-01-11T07:03:49.461Z,41.50
2023-01-11T07:06:16.998Z,49.80
2023-01-11T07:08:44.493Z,45.50
2023-01-11T07:11:12.104Z,50.10
2023-01-11T07:13:39.741Z,51.80
2023-01-11T07:16:07.410Z,52.60
2023-01-11T07:18:35.096Z,63.90
2023-01-11T07:21:02.629Z,66.90
2023-01-11T07:23:30.388Z,55.60
2023-01-11T07:25:57.946Z,69.40
2023-01-11T07:28:28.387Z,62.90
2023-01-11T07:30:59.194Z,76.50
2023-01-11T07:33:27.107Z,68.70
2023-01-11T07:35:54.705Z,68.20
2023-01-11T07:38:22.393Z,51.30
2023-01-11T07:40:49.990Z,36.70
2023-01-11T07:43:23.265Z,29.90
2023-01-11T07:45:51.024Z,37.00
2023-01-11T07:48:21.458Z,29.80
2023-01-11T07:50:49.179Z,21.20
2023-01-11T07:53:16.992Z,19.30
2023-01-11T07:55:44.473Z,22.70
2023-01-11T07:58:12.095Z,19.60
2023-01-11T08:00:40.856Z,12.70
2023-01-11T08:03:08.521Z,24.70
2023-01-11T08:05:36.095Z,22.50
2023-01-11T08:08:03.598Z,22.80
2023-01-11T08:10:31.081Z,12.00
2023-01-11T08:13:17.782Z,10.50
2023-01-11T08:15:45.431Z,17.30
2023-01-11T08:18:13.111Z,22.20
2023-01-11T08:20:40.760Z,20.40
2023-01-11T08:23:08.306Z,15.30
2023-01-11T08:25:36.131Z,19.20
2023-01-11T08:28:03.685Z,23.30
2023-01-11T08:30:31.310Z,26.70
2023-01-11T08:32:58.788Z,26.60
2023-01-11T08:35:26.501Z,24.80
2023-01-11T08:37:54.044Z,24.30
2023-01-11T08:40:23.932Z,24.00
2023-01-11T08:42:51.760Z,23.20
2023-01-11T08:45:19.329Z,24.90
2023-01-11T08:47:47.084Z,26.30
2023-01-11T08:50:17.390Z,24.40
2023-01-11T08:52:45.347Z,29.80
2023-01-11T08:55:12.878Z,28.70
2023-01-11T08:57:40.520Z,29.80
2023-01-11T09:00:08.245Z,30.20
2023-01-11T09:02:36.122Z,29.20
2023-01-11T09:05:03.890Z,21.60
2023-01-11T09:07:31.397Z,32.50
2023-01-11T09:09:58.873Z,43.40
2023-01-11T09:12:27.696Z,40.60
2023-01-11T09:14:55.263Z,34.30
2023-01-11T09:17:22.858Z,35.90
2023-01-11T09:19:50.505Z,35.20
2023-01-11T09:22:18.833Z,29.40
2023-01-11T09:24:46.415Z,33.10
2023-01-11T09:27:14.343Z,27.10
2023-01-11T09:29:42.056Z,28.00
2023-01-11T09:32:09.559Z,25.20
2023-01-11T09:34:37.132Z,37.70
2023-01-11T09:37:06.684Z,32.40
2023-01-11T09:39:35.222Z,29.40
2023-01-11T09:42:04.210Z,34.00
2023-01-11T09:44:31.683Z,37.70
2023-01-11T09:46:59.909Z,34.30
2023-01-11T09:49:28.164Z,32.40
2023-01-11T09:51:59.764Z,30.80
2023-01-11T09:54:27.540Z,29.00
2023-01-11T09:56:57.913Z,22.60
2023-01-11T09:59:27.035Z,29.50
2023-01-11T10:01:54.685Z,23.20
2023-01-11T10:04:25.875Z,24.70
2023-01-11T10:06:53.426Z,23.20
2023-01-11T10:18:27.726Z,26.50
2023-01-11T10:18:32.085Z,29.00
2023-01-11T10:20:35.482Z,34.00
2023-01-11T10:23:04.490Z,26.30
2023-01-11T10:25:42.123Z,31.30
2023-01-11T10:28:09.893Z,29.20
2023-01-11T10:31:06.818Z,30.60
2023-01-11T10:33:46.475Z,34.80
2023-01-11T10:36:29.281Z,41.50
2023-01-11T10:38:57.074Z,37.10
2023-01-11T10:41:33.995Z,37.30
2023-01-11T10:44:02.708Z,38.00
2023-01-11T10:46:30.185Z,38.80
2023-01-11T10:48:57.658Z,48.10
2023-01-11T10:51:27.317Z,29.80
2023-01-11T10:53:55.397Z,27.90
2023-01-11T10:56:22.943Z,23.10
2023-01-11T10:58:50.564Z,23.60
2023-01-11T11:01:20.490Z,24.70
2023-01-11T11:03:48.052Z,21.60
2023-01-11T11:06:15.808Z,21.20
2023-01-11T11:08:43.379Z,28.10
2023-01-11T11:11:10.889Z,22.50
2023-01-11T11:13:38.430Z,20.60
2023-01-11T11:16:05.932Z,24.70
2023-01-11T11:18:33.479Z,21.30
2023-01-11T11:21:01.056Z,14.90
2023-01-11T11:23:28.811Z,14.60
2023-01-11T11:25:56.391Z,13.60
2023-01-11T11:28:23.932Z,14.00
2023-01-11T11:30:51.430Z,19.20
2023-01-11T11:33:19.103Z,12.40
2023-01-11T11:35:46.789Z,15.00
2023-01-11T11:38:14.356Z,12.80
2023-01-11T11:40:41.963Z,11.20
2023-01-11T11:43:09.870Z,11.60
2023-01-11T11:45:37.480Z,10.00
2023-01-11T11:48:05.024Z,10.30
2023-01-11T11:50:44.324Z,9.60
2023-01-11T11:53:12.849Z,8.50
2023-01-11T11:55:40.505Z,9.70
2023-01-11T11:58:08.752Z,10.90
2023-01-11T12:00:40.069Z,10.90
2023-01-11T12:03:07.855Z,13.50
2023-01-11T12:05:35.412Z,12.20
2023-01-11T12:08:03.030Z,12.00
2023-01-11T12:10:30.761Z,12.10
2023-01-11T12:12:58.253Z,11.70
2023-01-11T12:15:26.367Z,10.10
2023-01-11T12:17:55.082Z,10.50
2023-01-11T12:20:22.568Z,13.50
2023-01-11T12:22:50.052Z,12.20
2023-01-11T12:25:17.601Z,11.30
2023-01-11T12:27:45.063Z,11.40
2023-01-11T12:30:12.851Z,10.50
2023-01-11T12:32:40.430Z,13.40
2023-01-11T12:35:07.904Z,13.60
2023-01-11T12:37:35.396Z,14.50
2023-01-11T12:40:02.903Z,14.10
2023-01-11T12:42:30.486Z,12.10
2023-01-11T12:44:58.017Z,13.50
2023-01-11T12:47:25.586Z,13.40
2023-01-11T12:49:54.334Z,13.60
2023-01-11T12:52:23.441Z,14.20
2023-01-11T12:54:53.968Z,13.70
2023-01-11T12:57:21.472Z,16.20
2023-01-11T12:59:49.002Z,15.70
2023-01-11T13:02:16.809Z,16.20
2023-01-11T13:04:44.472Z,15.90
2023-01-11T13:07:12.099Z,15.50
2023-01-11T13:09:39.838Z,17.20
2023-01-11T13:12:07.389Z,13.30
2023-01-11T13:14:34.968Z,17.10
2023-01-11T13:17:02.618Z,16.00
2023-01-11T13:19:30.191Z,18.20
2023-01-11T13:21:57.826Z,24.10
2023-01-11T13:24:26.588Z,22.70
2023-01-11T13:26:54.225Z,18.00
2023-01-11T13:29:21.767Z,21.80
2023-01-11T13:31:49.306Z,21.90
2023-01-11T13:34:16.858Z,22.60
2023-01-11T13:36:45.562Z,18.10
2023-01-11T13:39:13.097Z,21.60
2023-01-11T13:41:40.752Z,19.60
2023-01-11T13:44:08.295Z,18.30
2023-01-11T13:46:35.945Z,17.90
2023-01-11T13:49:03.492Z,16.10
2023-01-11T13:51:30.973Z,19.30
2023-01-11T13:53:58.497Z,19.10
2023-01-11T13:56:26.000Z,21.00
2023-01-11T13:58:53.619Z,23.10
2023-01-11T14:01:21.206Z,22.40
2023-01-11T14:03:48.895Z,21.50
2023-01-11T14:06:16.479Z,26.10
2023-01-11T14:08:44.329Z,28.70
2023-01-11T14:11:11.993Z,20.90
2023-01-11T14:13:58.440Z,28.50
2023-01-11T14:16:25.953Z,30.70
2023-01-11T14:18:53.471Z,33.20
2023-01-11T14:21:21.025Z,29.30
2023-01-11T14:23:48.575Z,31.50
2023-01-11T14:26:16.349Z,38.20
2023-01-11T14:28:44.614Z,46.00
2023-01-11T14:31:12.302Z,45.20
2023-01-11T14:33:39.862Z,43.80
2023-01-11T14:36:07.521Z,42.50
2023-01-11T14:38:35.042Z,41.40
2023-01-11T14:41:02.557Z,51.80
2023-01-11T14:43:30.152Z,48.80
2023-01-11T14:45:57.750Z,52.30
2023-01-11T14:48:25.309Z,45.00
2023-01-11T14:50:52.952Z,47.40
2023-01-11T14:53:20.519Z,62.40
2023-01-11T14:55:49.178Z,68.10
2023-01-11T14:58:21.481Z,67.90
2023-01-11T15:00:49.147Z,67.00
2023-01-11T15:03:18.215Z,70.20
2023-01-11T15:05:45.832Z,70.10
2023-01-11T15:08:13.297Z,86.20
2023-01-11T15:10:41.868Z,91.10
2023-01-11T15:13:09.652Z,81.60
2023-01-11T15:15:55.971Z,55.60
2023-01-11T15:18:23.539Z,74.70
2023-01-11T15:20:51.050Z,91.60
2023-01-11T15:23:18.543Z,107.80
2023-01-11T15:25:46.076Z,117.20
2023-01-11T15:28:13.559Z,113.00
2023-01-11T15:30:41.140Z,65.00
2023-01-11T15:33:08.702Z,106.20
2023-01-11T15:35:36.230Z,102.40
2023-01-11T15:38:03.779Z,109.30
2023-01-11T15:40:31.583Z,105.30
2023-01-11T15:42:59.094Z,103.50
2023-01-11T15:45:26.604Z,83.20
2023-01-11T15:47:54.279Z,83.30
2023-01-11T15:50:21.817Z,84.40
2023-01-11T15:52:50.789Z,83.50
2023-01-11T15:55:18.609Z,85.20
2023-01-11T15:57:46.132Z,96.10
2023-01-11T16:00:13.671Z,76.10
2023-01-11T16:02:41.354Z,82.30
2023-01-11T16:05:08.846Z,93.40
2023-01-11T16:07:36.509Z,104.00
2023-01-11T16:10:07.313Z,114.40
2023-01-11T16:12:34.829Z,109.20
2023-01-11T16:15:02.538Z,110.90
2023-01-11T16:17:33.088Z,106.50
2023-01-11T16:20:00.594Z,110.00
2023-01-11T16:22:28.192Z,97.00
2023-01-11T16:24:55.863Z,85.40
2023-01-11T16:27:23.715Z,97.40
2023-01-11T16:29:51.327Z,80.70
2023-01-11T16:32:18.840Z,83.20
2023-01-11T16:34:48.684Z,86.90
2023-01-11T16:37:16.163Z,90.10
2023-01-11T16:39:44.243Z,95.40
2023-01-11T16:42:11.809Z,74.60
2023-01-11T16:44:41.613Z,84.00
2023-01-11T16:47:11.388Z,88.40
2023-01-11T16:49:38.999Z,76.00
2023-01-11T16:52:06.510Z,92.00
2023-01-11T16:54:34.104Z,99.30
2023-01-11T16:57:01.971Z,91.40
2023-01-11T16:59:34.864Z,102.20
2023-01-11T17:02:05.576Z,110.00
2023-01-11T17:04:33.147Z,111.00
2023-01-11T17:07:00.754Z,104.90
2023-01-11T17:09:29.725Z,100.40
2023-01-11T17:11:57.240Z,91.90
2023-01-11T17:14:24.742Z,85.90
2023-01-11T17:16:52.478Z,75.40
2023-01-11T17:19:20.122Z,94.50
2023-01-11T17:21:47.725Z,119.10
2023-01-11T17:24:16.500Z,122.80
2023-01-11T17:26:44.090Z,111.30
2023-01-11T17:29:11.751Z,126.60
2023-01-11T17:31:39.294Z,118.50
2023-01-11T17:34:08.576Z,108.50
2023-01-11T17:36:36.484Z,108.50
2023-01-11T17:39:04.222Z,97.90
2023-01-11T17:41:50.663Z,93.60
2023-01-11T17:44:36.957Z,95.30
2023-01-11T17:47:04.469Z,99.60
2023-01-11T17:49:31.957Z,112.20
2023-01-11T17:51:59.465Z,125.80
2023-01-11T17:54:26.970Z,129.90
2023-01-11T17:56:54.427Z,112.50
2023-01-11T17:59:22.059Z,111.50
2023-01-11T18:01:49.895Z,104.70
2023-01-11T18:04:19.144Z,113.50
2023-01-11T18:06:48.410Z,102.60
2023-01-11T18:09:15.915Z,114.60
2023-01-11T18:11:43.485Z,105.00
2023-01-11T18:14:11.183Z,104.50
2023-01-11T18:16:38.756Z,94.00
2023-01-11T18:19:06.559Z,98.60
2023-01-11T18:21:34.144Z,99.40
2023-01-11T18:24:01.884Z,116.70
2023-01-11T18:26:29.599Z,104.60
2023-01-11T18:28:57.338Z,128.80
2023-01-11T18:31:25.230Z,116.90
2023-01-11T18:33:52.803Z,112.20
2023-01-11T18:36:20.728Z,116.80
2023-01-11T18:38:48.291Z,121.80
2023-01-11T18:41:34.500Z,120.70
2023-01-11T18:44:02.016Z,121.80
2023-01-11T18:46:29.531Z,123.90
2023-01-11T18:48:57.274Z,111.40
2023-01-11T18:51:25.116Z,150.20
2023-01-11T18:53:52.668Z,162.60
2023-01-11T18:56:20.165Z,122.80
2023-01-11T18:58:47.720Z,169.50
2023-01-11T19:01:18.992Z,179.00
2023-01-11T19:03:46.611Z,163.40
2023-01-11T19:06:14.233Z,151.00
2023-01-11T19:08:41.775Z,149.70
2023-01-11T19:11:09.565Z,110.70
2023-01-11T19:13:37.274Z,93.30
2023-01-11T19:16:04.801Z,97.20
2023-01-11T19:18:35.257Z,75.30
2023-01-11T19:21:03.371Z,99.80
2023-01-11T19:23:31.104Z,132.00
2023-01-11T19:25:58.864Z,128.30
2023-01-11T19:28:26.576Z,135.90
2023-01-11T19:30:54.079Z,149.20
2023-01-11T19:33:21.834Z,145.70
2023-01-11T19:35:49.954Z,127.90
2023-01-11T19:38:18.459Z,111.00
2023-01-11T19:40:46.257Z,109.00
2023-01-11T19:43:14.249Z,126.90
2023-01-11T19:45:41.927Z,114.10
2023-01-11T19:48:09.677Z,97.00
2023-01-11T19:50:37.239Z,97.00
2023-01-11T19:53:04.943Z,100.20
2023-01-11T19:55:32.677Z,94.00
2023-01-11T19:58:00.462Z,92.50
2023-01-11T20:00:28.176Z,82.30
2023-01-11T20:02:55.872Z,97.40
2023-01-11T20:05:23.867Z,113.80
2023-01-11T20:07:51.608Z,72.40
2023-01-11T20:10:19.124Z,134.70
2023-01-11T20:12:46.644Z,148.50
2023-01-11T20:15:14.294Z,132.60
2023-01-11T20:17:41.871Z,145.50
2023-01-11T20:20:09.373Z,186.80
2023-01-11T20:22:37.081Z,150.40
2023-01-11T20:25:04.780Z,177.50
2023-01-11T20:27:34.101Z,162.60
2023-01-11T20:30:01.728Z,140.00
2023-01-11T20:32:40.982Z,151.30
2023-01-11T20:35:10.074Z,142.70
2023-01-11T20:37:37.816Z,151.90
2023-01-11T20:40:05.604Z,140.60
2023-01-11T20:42:34.550Z,130.30
2023-01-11T20:45:02.067Z,128.30
2023-01-11T20:47:30.230Z,147.10
2023-01-11T20:49:57.805Z,136.60
2023-01-11T20:52:25.315Z,158.60
2023-01-11T20:54:52.964Z,122.70
2023-01-11T20:57:20.531Z,139.20
2023-01-11T20:59:48.099Z,115.60
2023-01-11T21:02:15.824Z,148.90
2023-01-11T21:04:43.449Z,138.30
2023-01-11T21:07:11.009Z,140.90
2023-01-11T21:09:38.721Z,144.30
2023-01-11T21:12:08.748Z,141.30
2023-01-11T21:14:37.435Z,145.00
2023-01-11T21:17:05.128Z,135.40
2023-01-11T21:19:32.667Z,137.00
2023-01-11T21:22:00.148Z,135.90
2023-01-11T21:24:27.908Z,146.60
2023-01-11T21:26:55.637Z,131.70
2023-01-11T21:29:23.321Z,65.90
2023-01-11T21:31:50.807Z,155.40
2023-01-11T21:34:18.476Z,157.70
2023-01-11T21:36:46.076Z,156.80
2023-01-11T21:39:13.739Z,208.60
2023-01-11T21:41:58.162Z,199.40
2023-01-11T21:44:27.192Z,203.40
2023-01-11T21:46:55.738Z,212.20
2023-01-11T21:49:24.431Z,189.70
2023-01-11T21:51:51.899Z,169.20
2023-01-11T21:54:19.395Z,204.30
2023-01-11T21:56:47.019Z,228.40
2023-01-11T21:59:14.620Z,228.70
2023-01-11T22:01:42.136Z,208.70
2023-01-11T22:04:09.767Z,208.70
2023-01-11T22:06:37.325Z,216.30
2023-01-11T22:09:04.870Z,185.20
2023-01-11T22:11:33.366Z,176.80
2023-01-11T22:14:02.448Z,171.30
2023-01-11T22:16:30.694Z,175.80
2023-01-11T22:18:58.467Z,135.90
2023-01-11T22:21:26.083Z,145.10
2023-01-11T22:23:53.596Z,115.30
2023-01-11T22:26:21.327Z,180.00
2023-01-11T22:29:07.698Z,140.80
2023-01-11T22:31:35.401Z,150.10
2023-01-11T22:34:02.914Z,150.50
2023-01-11T22:36:30.454Z,115.60
2023-01-11T22:38:57.994Z,109.50
2023-01-11T22:41:25.481Z,95.00
2023-01-11T22:43:52.948Z,119.70
2023-01-11T22:46:20.595Z,89.40
2023-01-11T22:48:48.797Z,135.00
2023-01-11T22:51:16.368Z,86.50
2023-01-11T22:53:43.928Z,121.30
2023-01-11T22:56:11.386Z,126.70
2023-01-11T22:58:39.118Z,137.00
2023-01-11T23:01:07.531Z,124.60
2023-01-11T23:03:35.039Z,78.10
2023-01-11T23:06:02.672Z,116.60
2023-01-11T23:08:30.242Z,110.50
2023-01-11T23:10:57.751Z,114.50
2023-01-11T23:13:44.121Z,80.50
2023-01-11T23:16:13.702Z,66.20
2023-01-11T23:18:42.415Z,94.30
2023-01-11T23:21:10.209Z,97.50
2023-01-11T23:23:38.229Z,114.80
2023-01-11T23:26:05.980Z,105.80
2023-01-11T23:28:33.671Z,109.20
2023-01-11T23:34:23.410Z,84.00
2023-01-11T23:36:50.930Z,84.30
2023-01-11T23:39:21.610Z,100.60
2023-01-11T23:42:08.039Z,642.80
2023-01-11T23:44:35.527Z,176.30
2023-01-11T23:47:21.572Z,95.30
2023-01-11T23:49:49.676Z,78.30
2023-01-11T23:52:17.195Z,57.80
2023-01-11T23:54:45.762Z,63.50
2023-01-11T23:57:13.521Z,88.70
2023-01-11T23:59:41.180Z,86.50
